Time;durP1;ratioP1;P1;durP2;ratioP2;P2;SDS_P1;SDS_P2;PMS_P1;PMS_P2;Temp;Humidity;BMP_temperature;BMP_pressure;BME280_temperature;BME280_humidity;BME280_pressure;Samples;Min_cycle;Max_cycle;Signal;HPM_P1;HPM_P2
2021/04/14 00:00:23;;;;;;;9.70;5.40;;;;;;;;;;5055748;28;20258;-65
2021/04/14 00:02:50;;;;;;;5.50;5.03;;;;;;;;;;5055176;28;20242;-65
2021/04/14 00:05:18;;;;;;;5.30;4.80;;;;;;;;;;5055180;28;20282;-65
2021/04/14 00:07:44;;;;;;;6.72;5.97;;;;;;;;;;5055163;28;20723;-65
2021/04/14 00:10:13;;;;;;;5.75;5.20;;;;;;;;;;5055076;28;20708;-65
2021/04/14 00:12:40;;;;;;;5.53;5.10;;;;;;;;;;5055282;28;20287;-65
2021/04/14 00:15:11;;;;;;;5.13;4.70;;;;;;;;;;5055747;28;20198;-65
2021/04/14 00:17:38;;;;;;;6.43;5.00;;;;;;;;;;5055308;28;20274;-65
2021/04/14 00:20:05;;;;;;;4.78;4.38;;;;;;;;;;5055980;28;20281;-65
2021/04/14 00:22:32;;;;;;;7.75;5.20;;;;;;;;;;5055156;28;20291;-65
2021/04/14 00:24:59;;;;;;;7.38;5.38;;;;;;;;;;5055064;28;20669;-65
2021/04/14 00:27:26;;;;;;;6.20;5.60;;;;;;;;;;5054581;28;20282;-65
2021/04/14 00:29:53;;;;;;;8.50;4.90;;;;;;;;;;5054938;28;20195;-65
2021/04/14 00:32:20;;;;;;;11.30;5.70;;;;;;;;;;5055002;28;20282;-65
2021/04/14 00:34:46;;;;;;;7.35;5.97;;;;;;;;;;5054924;28;20286;-65
2021/04/14 00:37:13;;;;;;;18.15;5.25;;;;;;;;;;5054856;28;20195;-65
2021/04/14 00:39:40;;;;;;;8.25;6.32;;;;;;;;;;5055139;28;20281;-65
2021/04/14 00:42:07;;;;;;;6.28;5.70;;;;;;;;;;5054734;28;20771;-65
2021/04/14 00:44:35;;;;;;;8.23;5.68;;;;;;;;;;5055531;28;20226;-65
2021/04/14 00:47:01;;;;;;;11.63;7.70;;;;;;;;;;5054578;28;20310;-65
2021/04/14 00:49:28;;;;;;;7.40;6.30;;;;;;;;;;5054645;28;20278;-65
2021/04/14 00:51:55;;;;;;;10.80;6.25;;;;;;;;;;5054243;28;20233;-65
2021/04/14 00:54:21;;;;;;;12.15;5.13;;;;;;;;;;5055394;28;20283;-65
2021/04/14 00:56:48;;;;;;;7.15;6.00;;;;;;;;;;5054541;28;20241;-65
2021/04/14 00:59:15;;;;;;;7.30;5.03;;;;;;;;;;5055067;28;20695;-65
2021/04/14 01:01:43;;;;;;;9.02;6.28;;;;;;;;;;5056506;28;20306;-65
2021/04/14 01:04:09;;;;;;;8.60;7.28;;;;;;;;;;5055546;28;20714;-65
2021/04/14 01:06:36;;;;;;;6.25;5.65;;;;;;;;;;5054600;28;20282;-65
2021/04/14 01:09:03;;;;;;;6.70;6.10;;;;;;;;;;5054352;28;20206;-65
2021/04/14 01:11:30;;;;;;;6.20;5.60;;;;;;;;;;5054024;28;20285;-65
2021/04/14 01:13:57;;;;;;;8.38;5.05;;;;;;;;;;5054289;28;20366;-65
2021/04/14 01:16:24;;;;;;;6.32;5.72;;;;;;;;;;5053911;28;20657;-65
2021/04/14 01:18:51;;;;;;;7.07;5.65;;;;;;;;;;5054413;28;20202;-65
2021/04/14 01:21:21;;;;;;;7.05;6.35;;;;;;;;;;5053649;28;20225;-64
2021/04/14 01:23:47;;;;;;;7.95;5.60;;;;;;;;;;5054003;28;20202;-65
2021/04/14 01:26:14;;;;;;;7.10;6.18;;;;;;;;;;5054451;28;20301;-65
2021/04/14 01:28:44;;;;;;;6.53;5.10;;;;;;;;;;5053897;28;20286;-64
2021/04/14 01:31:12;;;;;;;8.68;5.90;;;;;;;;;;5053881;28;20203;-64
2021/04/14 01:33:39;;;;;;;5.88;5.38;;;;;;;;;;5054214;28;20286;-64
2021/04/14 01:36:07;;;;;;;5.97;4.90;;;;;;;;;;5053532;28;20197;-65
2021/04/14 01:38:35;;;;;;;5.50;5.00;;;;;;;;;;5053474;28;20281;-65
2021/04/14 01:41:02;;;;;;;7.20;5.20;;;;;;;;;;5053755;28;20301;-65
2021/04/14 01:43:29;;;;;;;7.70;4.63;;;;;;;;;;5054084;28;20203;-64
2021/04/14 01:45:56;;;;;;;7.05;5.45;;;;;;;;;;5053490;28;20196;-64
2021/04/14 01:48:23;;;;;;;6.78;6.10;;;;;;;;;;5054502;28;20372;-64
2021/04/14 01:50:50;;;;;;;5.70;5.20;;;;;;;;;;5053342;28;20202;-64
2021/04/14 01:53:18;;;;;;;6.28;4.70;;;;;;;;;;5053648;28;20354;-65
2021/04/14 01:55:45;;;;;;;5.57;5.07;;;;;;;;;;5053499;28;20756;-65
2021/04/14 01:58:14;;;;;;;6.35;5.75;;;;;;;;;;5054049;28;20206;-64
2021/04/14 02:00:44;;;;;;;7.95;4.80;;;;;;;;;;5053034;28;20229;-64
2021/04/14 02:03:10;;;;;;;6.28;5.32;;;;;;;;;;5053509;28;20191;-64
2021/04/14 02:05:37;;;;;;;6.43;5.80;;;;;;;;;;5053500;28;20282;-64
2021/04/14 02:08:04;;;;;;;7.30;5.53;;;;;;;;;;5053474;28;20319;-65
2021/04/14 02:10:33;;;;;;;4.30;3.90;;;;;;;;;;5053457;28;20600;-65
2021/04/14 02:13:02;;;;;;;6.20;4.70;;;;;;;;;;5053170;28;20199;-64
2021/04/14 02:15:31;;;;;;;9.13;5.43;;;;;;;;;;5053277;28;20290;-65
2021/04/14 02:17:58;;;;;;;5.57;5.07;;;;;;;;;;5053566;28;20207;-65
2021/04/14 02:20:25;;;;;;;10.73;5.15;;;;;;;;;;5053388;28;20305;-65
2021/04/14 02:22:52;;;;;;;10.30;5.50;;;;;;;;;;5053869;28;20296;-64
2021/04/14 02:25:20;;;;;;;10.80;5.50;;;;;;;;;;5053326;28;20281;-64
2021/04/14 02:27:47;;;;;;;11.70;6.07;;;;;;;;;;5053217;28;20286;-65
2021/04/14 02:30:17;;;;;;;9.52;5.00;;;;;;;;;;5052927;28;20230;-65
2021/04/14 02:32:44;;;;;;;8.25;5.40;;;;;;;;;;5053480;28;20700;-64
2021/04/14 02:35:11;;;;;;;5.28;4.78;;;;;;;;;;5053139;28;20839;-65
2021/04/14 02:37:38;;;;;;;6.53;5.88;;;;;;;;;;5053156;28;20720;-65
2021/04/14 02:40:05;;;;;;;6.20;4.88;;;;;;;;;;5053247;28;20593;-65
2021/04/14 02:42:32;;;;;;;5.75;5.20;;;;;;;;;;5053478;28;20230;-65
2021/04/14 02:44:59;;;;;;;5.22;4.72;;;;;;;;;;5053120;28;20285;-65
2021/04/14 02:47:26;;;;;;;9.10;5.63;;;;;;;;;;5053683;28;20357;-65
2021/04/14 02:49:53;;;;;;;5.20;4.70;;;;;;;;;;5056024;28;20290;-65
2021/04/14 02:52:20;;;;;;;5.45;5.00;;;;;;;;;;5056857;28;20199;-65
2021/04/14 02:54:48;;;;;;;5.35;4.88;;;;;;;;;;5056816;28;20619;-65
2021/04/14 02:57:15;;;;;;;6.40;5.22;;;;;;;;;;5056455;28;20191;-65
2021/04/14 02:59:42;;;;;;;6.18;4.90;;;;;;;;;;5057012;28;20289;-65
2021/04/14 03:02:08;;;;;;;5.75;5.25;;;;;;;;;;5056586;28;20306;-65
2021/04/14 03:04:36;;;;;;;7.60;4.88;;;;;;;;;;5056343;28;20729;-65
2021/04/14 03:07:03;;;;;;;7.18;5.18;;;;;;;;;;5056216;28;20281;-65
2021/04/14 03:09:30;;;;;;;6.40;5.47;;;;;;;;;;5056434;28;20599;-65
2021/04/14 03:11:57;;;;;;;5.88;4.30;;;;;;;;;;5056283;28;20227;-65
2021/04/14 03:14:24;;;;;;;7.07;4.60;;;;;;;;;;5056511;28;20199;-66
2021/04/14 03:16:51;;;;;;;5.78;5.18;;;;;;;;;;5056386;28;20206;-65
2021/04/14 03:19:18;;;;;;;12.30;5.45;;;;;;;;;;5055709;28;20202;-66
2021/04/14 03:21:45;;;;;;;5.97;5.30;;;;;;;;;;5055861;28;20214;-66
2021/04/14 03:24:12;;;;;;;9.38;5.43;;;;;;;;;;5056562;28;20282;-66
2021/04/14 03:26:39;;;;;;;5.95;5.35;;;;;;;;;;5055621;28;20724;-65
2021/04/14 03:29:06;;;;;;;16.65;8.00;;;;;;;;;;5055918;28;20670;-65
2021/04/14 03:31:32;;;;;;;5.25;4.78;;;;;;;;;;5055484;28;20377;-66
2021/04/14 03:33:59;;;;;;;9.90;5.85;;;;;;;;;;5056428;28;20289;-66
2021/04/14 03:36:26;;;;;;;10.60;5.10;;;;;;;;;;5055332;28;20202;-66
2021/04/14 03:38:54;;;;;;;6.03;4.55;;;;;;;;;;5055321;28;20194;-66
2021/04/14 03:41:20;;;;;;;7.63;5.32;;;;;;;;;;5055482;28;20313;-66
2021/04/14 03:43:49;;;;;;;5.13;4.63;;;;;;;;;;5055512;28;20286;-66
2021/04/14 03:46:17;;;;;;;5.07;4.65;;;;;;;;;;5055172;28;20201;-66
2021/04/14 03:48:43;;;;;;;13.15;4.75;;;;;;;;;;5055574;28;20254;-66
2021/04/14 03:51:10;;;;;;;5.68;5.05;;;;;;;;;;5055396;28;20249;-65
2021/04/14 03:53:38;;;;;;;9.05;5.50;;;;;;;;;;5055026;28;20723;-66
2021/04/14 03:56:07;;;;;;;6.03;5.40;;;;;;;;;;5054980;28;20199;-65
2021/04/14 03:58:35;;;;;;;5.25;4.82;;;;;;;;;;5055266;28;20227;-65
2021/04/14 04:01:03;;;;;;;7.80;5.82;;;;;;;;;;5054153;28;20219;-66
2021/04/14 04:03:30;;;;;;;6.25;5.15;;;;;;;;;;5055170;28;20241;-65
2021/04/14 04:05:57;;;;;;;7.45;5.53;;;;;;;;;;5055362;28;20238;-65
2021/04/14 04:08:24;;;;;;;7.25;4.70;;;;;;;;;;5054953;28;20657;-65
2021/04/14 04:10:51;;;;;;;7.82;6.15;;;;;;;;;;5055029;28;20202;-65
2021/04/14 04:13:19;;;;;;;5.78;5.18;;;;;;;;;;5054755;28;20570;-65
2021/04/14 04:15:46;;;;;;;6.70;6.10;;;;;;;;;;5054622;28;20285;-65
2021/04/14 04:18:13;;;;;;;6.75;5.68;;;;;;;;;;5055063;28;20278;-65
2021/04/14 04:20:40;;;;;;;10.93;5.18;;;;;;;;;;5054438;28;20318;-66
2021/04/14 04:23:07;;;;;;;7.57;5.93;;;;;;;;;;5054534;28;20328;-65
2021/04/14 04:25:34;;;;;;;7.60;5.70;;;;;;;;;;5054805;28;20198;-65
2021/04/14 04:28:01;;;;;;;14.02;5.70;;;;;;;;;;5054733;28;20293;-65
2021/04/14 04:30:29;;;;;;;6.45;5.40;;;;;;;;;;5054328;28;20290;-65
2021/04/14 04:32:56;;;;;;;5.82;5.25;;;;;;;;;;5054515;28;20238;-65
2021/04/14 04:35:23;;;;;;;7.15;5.25;;;;;;;;;;5054206;28;20201;-65
2021/04/14 04:37:50;;;;;;;11.57;5.22;;;;;;;;;;5054385;28;20195;-65
2021/04/14 04:40:17;;;;;;;9.27;6.35;;;;;;;;;;5054766;28;20199;-66
2021/04/14 04:42:44;;;;;;;6.57;5.75;;;;;;;;;;5054171;28;20230;-66
2021/04/14 04:45:11;;;;;;;5.80;5.30;;;;;;;;;;5054256;28;20282;-64
2021/04/14 04:47:39;;;;;;;6.97;5.93;;;;;;;;;;5054519;28;20231;-68
2021/04/14 04:50:07;;;;;;;6.55;5.95;;;;;;;;;;5054191;28;20234;-65
2021/04/14 04:52:34;;;;;;;7.68;5.35;;;;;;;;;;5054674;28;20281;-66
2021/04/14 04:55:01;;;;;;;9.73;5.50;;;;;;;;;;5053863;28;20286;-66
2021/04/14 04:57:28;;;;;;;7.40;5.55;;;;;;;;;;5053902;28;20203;-65
2021/04/14 04:59:55;;;;;;;6.07;5.47;;;;;;;;;;5054268;28;20195;-66
2021/04/14 05:02:27;;;;;;;12.25;5.82;;;;;;;;;;5054065;28;20230;-66
2021/04/14 05:04:55;;;;;;;8.13;6.28;;;;;;;;;;5054089;28;20214;-65
2021/04/14 05:07:21;;;;;;;11.68;5.70;;;;;;;;;;5053692;28;20383;-65
2021/04/14 05:09:48;;;;;;;12.77;5.65;;;;;;;;;;5054507;28;20237;-65
2021/04/14 05:12:15;;;;;;;7.15;5.22;;;;;;;;;;5056904;28;20614;-64
2021/04/14 05:14:42;;;;;;;9.55;5.95;;;;;;;;;;5057393;28;20288;-65
2021/04/14 05:17:08;;;;;;;7.75;6.00;;;;;;;;;;5053007;28;20257;-65
2021/04/14 05:19:35;;;;;;;7.07;6.38;;;;;;;;;;5052867;28;20191;-65
2021/04/14 05:22:03;;;;;;;9.15;5.97;;;;;;;;;;5052862;28;20225;-65
2021/04/14 05:24:30;;;;;;;8.00;6.40;;;;;;;;;;5053215;28;20205;-65
2021/04/14 05:26:56;;;;;;;10.73;7.43;;;;;;;;;;5053339;28;20277;-65
2021/04/14 05:29:23;;;;;;;8.90;7.10;;;;;;;;;;5053377;28;20195;-65
2021/04/14 05:31:50;;;;;;;10.75;7.32;;;;;;;;;;5053599;28;20195;-65
2021/04/14 05:34:17;;;;;;;14.38;7.07;;;;;;;;;;5053746;28;20190;-65
2021/04/14 05:36:45;;;;;;;10.15;7.22;;;;;;;;;;5053293;28;20674;-65
2021/04/14 05:39:12;;;;;;;10.05;7.25;;;;;;;;;;5053143;28;20198;-65
2021/04/14 05:41:39;;;;;;;6.90;6.20;;;;;;;;;;5053287;28;20334;-65
2021/04/14 05:44:06;;;;;;;7.90;6.55;;;;;;;;;;5053789;28;20286;-66
2021/04/14 05:46:33;;;;;;;9.65;6.82;;;;;;;;;;5053008;28;20197;-65
2021/04/14 05:48:59;;;;;;;8.57;6.78;;;;;;;;;;5053088;28;20215;-66
2021/04/14 05:51:30;;;;;;;9.90;6.63;;;;;;;;;;5054778;28;20208;-65
2021/04/14 05:53:57;;;;;;;12.75;8.55;;;;;;;;;;5054497;28;20325;-66
2021/04/14 05:56:25;;;;;;;10.13;7.63;;;;;;;;;;5054240;28;20324;-64
2021/04/14 05:58:52;;;;;;;9.82;8.35;;;;;;;;;;5053285;28;20233;-65
2021/04/14 06:01:20;;;;;;;14.68;7.35;;;;;;;;;;5052707;28;20656;-66
2021/04/14 06:03:48;;;;;;;10.52;7.25;;;;;;;;;;5053436;28;20282;-67
2021/04/14 06:06:15;;;;;;;7.75;7.05;;;;;;;;;;5052955;28;20195;-65
2021/04/14 06:08:42;;;;;;;8.93;6.38;;;;;;;;;;5052600;28;20285;-65
2021/04/14 06:11:09;;;;;;;15.07;6.93;;;;;;;;;;5052957;28;20226;-65
2021/04/14 06:13:37;;;;;;;15.43;7.18;;;;;;;;;;5052636;28;20286;-65
2021/04/14 06:16:04;;;;;;;13.32;7.45;;;;;;;;;;5052660;28;20673;-65
2021/04/14 06:18:31;;;;;;;8.20;7.40;;;;;;;;;;5052543;28;20281;-65
2021/04/14 06:20:59;;;;;;;10.52;7.38;;;;;;;;;;5052753;28;20218;-65
2021/04/14 06:23:25;;;;;;;10.48;7.43;;;;;;;;;;5053086;28;20195;-65
2021/04/14 06:25:58;;;;;;;8.80;7.30;;;;;;;;;;5056954;28;20222;-65
2021/04/14 06:28:26;;;;;;;9.75;7.60;;;;;;;;;;5056256;28;20179;-65
2021/04/14 06:30:54;;;;;;;7.05;6.30;;;;;;;;;;5056946;28;20641;-65
2021/04/14 06:33:22;;;;;;;14.15;7.03;;;;;;;;;;5056829;28;20277;-65
2021/04/14 06:35:50;;;;;;;13.75;7.28;;;;;;;;;;5057006;28;20556;-65
2021/04/14 06:38:21;;;;;;;8.80;6.70;;;;;;;;;;5056773;28;20195;-65
2021/04/14 06:43:40;;;;;;;10.32;6.80;;;;;;;;;;5055695;28;20200;-65
2021/04/14 06:46:11;;;;;;;7.70;5.85;;;;;;;;;;5055978;28;20218;-67
2021/04/14 06:48:43;;;;;;;9.35;6.60;;;;;;;;;;5056214;28;20238;-66
2021/04/14 06:51:14;;;;;;;7.00;6.30;;;;;;;;;;5056612;28;20209;-67
2021/04/14 06:53:47;;;;;;;9.50;6.10;;;;;;;;;;5056625;28;20183;-66
2021/04/14 06:56:15;;;;;;;11.75;6.85;;;;;;;;;;5056323;28;20296;-65
2021/04/14 06:58:44;;;;;;;8.35;6.68;;;;;;;;;;5056096;28;20234;-65
2021/04/14 07:01:13;;;;;;;15.88;7.30;;;;;;;;;;5056067;28;20257;-65
2021/04/14 07:03:43;;;;;;;20.17;6.40;;;;;;;;;;5056368;28;20234;-65
2021/04/14 07:06:12;;;;;;;9.15;6.60;;;;;;;;;;5056213;28;20373;-66
2021/04/14 07:08:41;;;;;;;8.73;6.07;;;;;;;;;;5055896;28;20245;-66
2021/04/14 07:11:12;;;;;;;7.97;5.43;;;;;;;;;;5056229;28;20228;-65
2021/04/14 07:13:39;;;;;;;8.30;5.30;;;;;;;;;;5056449;28;20229;-65
2021/04/14 07:16:15;;;;;;;11.32;4.80;;;;;;;;;;5055770;28;20230;-65
2021/04/14 07:18:52;;;;;;;9.02;5.40;;;;;;;;;;5055701;28;20194;-64
2021/04/14 07:21:24;;;;;;;3.17;2.80;;;;;;;;;;5055666;28;20211;-65
2021/04/14 07:23:52;;;;;;;6.50;4.78;;;;;;;;;;5056208;28;20225;-65
2021/04/14 07:26:21;;;;;;;8.20;4.47;;;;;;;;;;5055911;28;20230;-65
2021/04/14 07:29:09;;;;;;;4.22;3.80;;;;;;;;;;5055522;28;20533;-65
2021/04/14 07:31:37;;;;;;;5.53;3.88;;;;;;;;;;5055550;28;20223;-65
2021/04/14 07:34:08;;;;;;;6.85;4.28;;;;;;;;;;5055314;28;20196;-66
2021/04/14 07:36:41;;;;;;;9.77;3.90;;;;;;;;;;5054225;28;20191;-65
2021/04/14 07:39:12;;;;;;;6.22;3.47;;;;;;;;;;5056263;28;20642;-65
2021/04/14 07:41:43;;;;;;;3.42;3.13;;;;;;;;;;5055516;28;20380;-65
2021/04/14 07:44:16;;;;;;;10.65;4.10;;;;;;;;;;5055175;28;20646;-65
2021/04/14 07:46:46;;;;;;;12.65;4.25;;;;;;;;;;5055851;28;20581;-65
2021/04/14 07:49:13;;;;;;;5.63;4.43;;;;;;;;;;5055093;28;20191;-65
2021/04/14 07:51:41;;;;;;;4.50;3.97;;;;;;;;;;5055125;28;20199;-65
2021/04/14 07:54:14;;;;;;;5.25;3.88;;;;;;;;;;5055388;28;20205;-65
2021/04/14 07:56:41;;;;;;;6.30;3.67;;;;;;;;;;5055282;28;20538;-66
2021/04/14 07:59:11;;;;;;;5.07;3.03;;;;;;;;;;5055033;28;20705;-65
2021/04/14 08:01:38;;;;;;;6.65;2.08;;;;;;;;;;5054906;28;20365;-65
2021/04/14 08:04:10;;;;;;;6.40;3.03;;;;;;;;;;5054578;28;20195;-65
2021/04/14 08:06:38;;;;;;;8.68;2.65;;;;;;;;;;5054806;28;20201;-65
2021/04/14 08:09:10;;;;;;;4.93;2.40;;;;;;;;;;5054427;28;20227;-66
2021/04/14 08:11:38;;;;;;;2.40;2.03;;;;;;;;;;5054774;28;20199;-66
2021/04/14 08:14:09;;;;;;;3.90;2.00;;;;;;;;;;5055185;28;20196;-66
2021/04/14 08:16:40;;;;;;;7.30;2.60;;;;;;;;;;5055280;28;20212;-66
2021/04/14 08:19:08;;;;;;;4.50;2.20;;;;;;;;;;5055402;28;20200;-65
2021/04/14 08:21:36;;;;;;;2.10;1.60;;;;;;;;;;5055591;28;20383;-66
2021/04/14 08:24:05;;;;;;;3.08;2.13;;;;;;;;;;5055108;28;20289;-65
2021/04/14 08:26:32;;;;;;;4.22;1.90;;;;;;;;;;5054758;28;20191;-67
2021/04/14 08:29:17;;;;;;;3.22;2.30;;;;;;;;;;5054606;28;20217;-65
2021/04/14 08:31:48;;;;;;;10.68;2.60;;;;;;;;;;5054677;28;20201;-65
2021/04/14 08:34:17;;;;;;;2.60;2.40;;;;;;;;;;5055501;28;20206;-65
2021/04/14 08:36:48;;;;;;;2.67;2.10;;;;;;;;;;5054665;28;20198;-65
2021/04/14 08:39:17;;;;;;;3.22;2.30;;;;;;;;;;5054436;28;20188;-65
2021/04/14 08:41:45;;;;;;;3.03;2.58;;;;;;;;;;5054642;28;20299;-66
2021/04/14 08:44:13;;;;;;;2.28;1.88;;;;;;;;;;5054123;28;20336;-66
2021/04/14 08:46:40;;;;;;;3.05;2.10;;;;;;;;;;5054204;28;20229;-64
2021/04/14 08:49:08;;;;;;;3.35;2.10;;;;;;;;;;5054343;28;20215;-65
2021/04/14 08:51:37;;;;;;;2.67;1.90;;;;;;;;;;5054201;28;20203;-66
2021/04/14 08:54:05;;;;;;;12.05;2.30;;;;;;;;;;5054517;28;20191;-66
2021/04/14 08:56:33;;;;;;;3.13;1.95;;;;;;;;;;5053929;28;20225;-65
2021/04/14 08:59:00;;;;;;;4.60;2.75;;;;;;;;;;5053728;28;20203;-65
2021/04/14 09:01:31;;;;;;;4.00;2.40;;;;;;;;;;5053858;28;20220;-65
2021/04/14 09:04:00;;;;;;;2.65;2.33;;;;;;;;;;5053783;28;20365;-66
2021/04/14 09:06:27;;;;;;;5.80;4.05;;;;;;;;;;5054236;28;20203;-65
2021/04/14 09:08:56;;;;;;;3.58;2.65;;;;;;;;;;5053662;28;20201;-65
2021/04/14 09:11:24;;;;;;;7.00;2.92;;;;;;;;;;5054337;28;20650;-66
2021/04/14 09:14:00;;;;;;;4.05;2.67;;;;;;;;;;5054084;28;20199;-65
2021/04/14 09:16:36;;;;;;;4.80;2.92;;;;;;;;;;5054183;28;20192;-67
2021/04/14 09:19:07;;;;;;;7.88;3.03;;;;;;;;;;5053788;28;20182;-66
2021/04/14 09:21:42;;;;;;;8.27;3.10;;;;;;;;;;5054070;28;20216;-66
2021/04/14 09:24:20;;;;;;;2.65;2.35;;;;;;;;;;5053512;28;20697;-66
2021/04/14 09:26:54;;;;;;;5.85;2.17;;;;;;;;;;5053600;28;20273;-65
2021/04/14 09:29:25;;;;;;;4.20;1.92;;;;;;;;;;5053430;28;20680;-67
2021/04/14 09:31:52;;;;;;;3.40;2.10;;;;;;;;;;5053423;28;20277;-66
2021/04/14 09:34:30;;;;;;;3.80;2.28;;;;;;;;;;5053500;28;20610;-65
2021/04/14 09:37:00;;;;;;;3.60;3.30;;;;;;;;;;5053527;28;20206;-66
2021/04/14 09:39:32;;;;;;;3.17;2.45;;;;;;;;;;5053994;28;20200;-66
2021/04/14 09:41:59;;;;;;;2.35;2.15;;;;;;;;;;5053380;28;20669;-65
2021/04/14 09:44:36;;;;;;;2.53;2.10;;;;;;;;;;5053089;28;20200;-66
2021/04/14 09:47:20;;;;;;;2.13;1.60;;;;;;;;;;5053443;28;20276;-65
2021/04/14 09:49:48;;;;;;;5.05;2.45;;;;;;;;;;5052836;28;20630;-65
2021/04/14 09:52:29;;;;;;;3.58;2.60;;;;;;;;;;5052940;28;20210;-65
2021/04/14 09:54:59;;;;;;;5.47;2.67;;;;;;;;;;5053251;28;20186;-66
2021/04/14 09:57:28;;;;;;;3.33;2.25;;;;;;;;;;5054068;28;20222;-66
2021/04/14 09:59:57;;;;;;;2.60;2.22;;;;;;;;;;5052462;28;20681;-65
2021/04/14 10:02:26;;;;;;;5.45;2.75;;;;;;;;;;5053175;28;20242;-66
2021/04/14 10:04:54;;;;;;;2.30;2.20;;;;;;;;;;5053341;28;20198;-65
2021/04/14 10:07:23;;;;;;;6.65;2.50;;;;;;;;;;5053383;28;20378;-66
2021/04/14 10:09:49;;;;;;;3.65;2.92;;;;;;;;;;5054033;28;20241;-67
2021/04/14 10:12:17;;;;;;;5.05;3.28;;;;;;;;;;5053534;28;20236;-65
2021/04/14 10:14:45;;;;;;;5.20;2.45;;;;;;;;;;5053245;28;20663;-65
2021/04/14 10:17:12;;;;;;;2.70;2.50;;;;;;;;;;5053696;28;20283;-65
2021/04/14 10:19:39;;;;;;;3.45;2.60;;;;;;;;;;5053744;28;20554;-65
2021/04/14 10:22:07;;;;;;;2.45;2.25;;;;;;;;;;5052931;28;20215;-65
2021/04/14 10:24:34;;;;;;;2.45;2.25;;;;;;;;;;5052993;28;20203;-65
2021/04/14 10:27:01;;;;;;;3.72;2.65;;;;;;;;;;5053244;28;20675;-66
2021/04/14 10:29:29;;;;;;;3.88;2.60;;;;;;;;;;5053741;28;20195;-65
2021/04/14 10:31:57;;;;;;;2.65;2.25;;;;;;;;;;5053172;28;20203;-65
2021/04/14 10:34:26;;;;;;;2.55;2.17;;;;;;;;;;5053626;28;20198;-65
2021/04/14 10:36:53;;;;;;;3.63;2.22;;;;;;;;;;5053221;28;20287;-66
2021/04/14 10:39:26;;;;;;;2.25;1.80;;;;;;;;;;5053239;28;20527;-66
2021/04/14 10:41:54;;;;;;;3.00;2.75;;;;;;;;;;5052460;28;20258;-65
2021/04/14 10:44:22;;;;;;;4.72;2.65;;;;;;;;;;5053051;28;20342;-65
2021/04/14 10:46:49;;;;;;;2.60;2.40;;;;;;;;;;5053527;28;20244;-64
2021/04/14 10:49:23;;;;;;;3.53;2.13;;;;;;;;;;5053339;28;20215;-65
2021/04/14 10:51:52;;;;;;;2.40;2.20;;;;;;;;;;5053349;28;20269;-66
2021/04/14 10:54:21;;;;;;;3.15;1.95;;;;;;;;;;5053441;28;20267;-66
2021/04/14 10:56:57;;;;;;;3.25;2.10;;;;;;;;;;5053628;28;20208;-66
2021/04/14 10:59:24;;;;;;;7.15;3.33;;;;;;;;;;5054498;28;20235;-67
2021/04/14 11:01:52;;;;;;;2.60;2.20;;;;;;;;;;5054865;28;20225;-63
2021/04/14 11:04:33;;;;;;;4.88;2.00;;;;;;;;;;5054133;28;20551;-64
2021/04/14 11:07:03;;;;;;;2.33;2.13;;;;;;;;;;5053700;28;20196;-64
2021/04/14 11:09:31;;;;;;;4.35;2.05;;;;;;;;;;5053974;28;20201;-64
2021/04/14 11:11:59;;;;;;;3.60;2.50;;;;;;;;;;5057489;28;20593;-64
2021/04/14 11:14:27;;;;;;;4.93;2.08;;;;;;;;;;5057159;28;20247;-64
2021/04/14 11:16:54;;;;;;;3.40;2.20;;;;;;;;;;5057365;28;20287;-63
2021/04/14 11:19:22;;;;;;;3.80;3.05;;;;;;;;;;5056368;28;20207;-64
2021/04/14 11:22:01;;;;;;;2.83;1.83;;;;;;;;;;5056172;28;20224;-63
2021/04/14 11:24:27;;;;;;;1.80;1.70;;;;;;;;;;5057444;28;20288;-63
2021/04/14 11:26:55;;;;;;;4.63;1.70;;;;;;;;;;5056320;28;20192;-64
2021/04/14 11:29:23;;;;;;;2.50;1.55;;;;;;;;;;5056625;28;20199;-64
2021/04/14 11:31:53;;;;;;;3.25;1.95;;;;;;;;;;5056106;28;20292;-64
2021/04/14 11:34:21;;;;;;;2.47;1.55;;;;;;;;;;5055960;28;20599;-62
2021/04/14 11:36:58;;;;;;;2.65;2.10;;;;;;;;;;5056215;28;20673;-63
2021/04/14 11:39:27;;;;;;;3.50;2.03;;;;;;;;;;5055816;28;20234;-62
2021/04/14 11:42:04;;;;;;;5.13;1.88;;;;;;;;;;5055980;28;20556;-63
2021/04/14 11:44:39;;;;;;;6.45;1.88;;;;;;;;;;5056193;28;20651;-64
2021/04/14 11:47:07;;;;;;;4.38;2.05;;;;;;;;;;5055726;28;20255;-63
2021/04/14 11:49:36;;;;;;;5.50;1.77;;;;;;;;;;5056232;28;20209;-64
2021/04/14 11:52:13;;;;;;;1.80;1.70;;;;;;;;;;5056274;28;20205;-63
2021/04/14 11:54:41;;;;;;;2.17;1.80;;;;;;;;;;5056778;28;20238;-63
2021/04/14 11:57:17;;;;;;;2.55;2.33;;;;;;;;;;5055593;28;20207;-63
2021/04/14 11:59:46;;;;;;;2.15;1.95;;;;;;;;;;5055828;28;20188;-63
2021/04/14 12:02:20;;;;;;;2.00;1.90;;;;;;;;;;5055636;28;20216;-63
2021/04/14 12:04:56;;;;;;;2.30;1.95;;;;;;;;;;5055629;28;20184;-63
2021/04/14 12:07:23;;;;;;;4.30;2.10;;;;;;;;;;5055569;28;20196;-64
2021/04/14 12:09:51;;;;;;;1.73;1.63;;;;;;;;;;5055467;28;20561;-64
2021/04/14 12:12:18;;;;;;;2.80;1.90;;;;;;;;;;5055409;28;20568;-64
2021/04/14 12:14:44;;;;;;;7.63;2.10;;;;;;;;;;5054919;28;20203;-63
2021/04/14 12:17:12;;;;;;;2.28;1.70;;;;;;;;;;5055029;28;20234;-63
2021/04/14 12:19:38;;;;;;;6.80;1.70;;;;;;;;;;5055211;28;20201;-62
2021/04/14 12:22:06;;;;;;;3.75;1.60;;;;;;;;;;5054383;28;20660;-64
2021/04/14 12:24:33;;;;;;;2.92;2.10;;;;;;;;;;5054959;28;20196;-64
2021/04/14 12:27:00;;;;;;;3.88;1.80;;;;;;;;;;5054834;28;20266;-63
2021/04/14 12:29:27;;;;;;;2.17;1.95;;;;;;;;;;5054852;28;20662;-64
2021/04/14 12:31:54;;;;;;;1.52;1.42;;;;;;;;;;5054947;28;20200;-64
2021/04/14 12:34:21;;;;;;;1.80;1.70;;;;;;;;;;5054449;28;20288;-63
2021/04/14 12:36:47;;;;;;;1.85;1.75;;;;;;;;;;5054770;28;20290;-64
2021/04/14 12:39:15;;;;;;;3.15;2.00;;;;;;;;;;5054982;28;20667;-64
2021/04/14 12:41:42;;;;;;;1.80;1.70;;;;;;;;;;5054770;28;20235;-64
2021/04/14 12:44:10;;;;;;;3.08;1.85;;;;;;;;;;5054899;28;20603;-63
2021/04/14 12:46:41;;;;;;;3.55;2.08;;;;;;;;;;5069010;28;20228;-63
2021/04/14 12:49:11;;;;;;;2.67;2.25;;;;;;;;;;5073561;28;20199;-64
2021/04/14 12:51:39;;;;;;;4.15;1.90;;;;;;;;;;5073530;28;20634;-64
2021/04/14 12:54:12;;;;;;;2.30;2.00;;;;;;;;;;5073396;28;20290;-64
2021/04/14 12:56:41;;;;;;;3.55;2.60;;;;;;;;;;5073761;28;20185;-64
2021/04/14 12:59:10;;;;;;;1.95;1.85;;;;;;;;;;5074046;28;20207;-64
2021/04/14 13:01:38;;;;;;;2.28;2.08;;;;;;;;;;5073441;28;20272;-64
2021/04/14 13:04:07;;;;;;;5.05;1.92;;;;;;;;;;5073695;28;20296;-64
2021/04/14 13:06:37;;;;;;;2.88;2.67;;;;;;;;;;5073636;28;20281;-62
2021/04/14 13:09:04;;;;;;;3.67;2.17;;;;;;;;;;5073678;28;20238;-64
2021/04/14 13:11:32;;;;;;;2.53;1.95;;;;;;;;;;5073387;28;20279;-65
2021/04/14 13:13:59;;;;;;;2.20;2.00;;;;;;;;;;5062161;28;20250;-63
2021/04/14 13:16:28;;;;;;;3.83;3.53;;;;;;;;;;5053806;28;20192;-63
2021/04/14 13:18:55;;;;;;;3.45;1.85;;;;;;;;;;5053501;28;20239;-63
2021/04/14 13:21:26;;;;;;;3.05;2.20;;;;;;;;;;5053707;28;20203;-63
2021/04/14 13:23:57;;;;;;;3.00;2.40;;;;;;;;;;5054038;28;20191;-62
2021/04/14 13:26:27;;;;;;;2.47;2.05;;;;;;;;;;5053408;28;20181;-63
2021/04/14 13:29:02;;;;;;;4.72;2.20;;;;;;;;;;5053644;28;20581;-64
2021/04/14 13:31:33;;;;;;;2.95;2.15;;;;;;;;;;5052942;28;20228;-63
2021/04/14 13:34:04;;;;;;;3.17;2.45;;;;;;;;;;5052308;28;20573;-63
2021/04/14 13:36:34;;;;;;;2.80;2.63;;;;;;;;;;5053265;28;20214;-63
2021/04/14 13:39:03;;;;;;;2.33;2.22;;;;;;;;;;5053576;28;20221;-63
2021/04/14 13:41:33;;;;;;;3.63;3.33;;;;;;;;;;5052909;28;20225;-63
2021/04/14 13:44:03;;;;;;;3.30;3.05;;;;;;;;;;5052819;28;20202;-64
2021/04/14 13:46:32;;;;;;;3.45;3.05;;;;;;;;;;5053261;28;20316;-64
2021/04/14 13:49:01;;;;;;;4.38;2.63;;;;;;;;;;5053752;28;20187;-64
2021/04/14 13:51:31;;;;;;;3.38;3.08;;;;;;;;;;5053051;28;20247;-64
2021/04/14 13:53:58;;;;;;;3.67;2.90;;;;;;;;;;5053358;28;20214;-64
2021/04/14 13:56:32;;;;;;;4.43;3.13;;;;;;;;;;5053367;28;20644;-64
2021/04/14 13:59:01;;;;;;;3.25;2.70;;;;;;;;;;5053227;28;20184;-63
2021/04/14 14:01:31;;;;;;;1.80;1.70;;;;;;;;;;5052952;28;20273;-62
2021/04/14 14:03:58;;;;;;;16.60;9.65;;;;;;;;;;5053123;28;20183;-63
2021/04/14 14:06:33;;;;;;;2.40;1.98;;;;;;;;;;5053624;28;20704;-63
2021/04/14 14:09:03;;;;;;;2.20;2.00;;;;;;;;;;5052729;28;20223;-63
2021/04/14 14:11:31;;;;;;;2.00;1.90;;;;;;;;;;5052210;28;20224;-65
2021/04/14 14:14:00;;;;;;;2.10;1.60;;;;;;;;;;5052997;28;20294;-63
2021/04/14 14:16:36;;;;;;;1.92;1.58;;;;;;;;;;5053149;28;20208;-64
2021/04/14 14:19:06;;;;;;;2.40;2.20;;;;;;;;;;5053300;28;20190;-64
2021/04/14 14:21:34;;;;;;;2.17;1.80;;;;;;;;;;5053263;28;20224;-63
2021/04/14 14:24:02;;;;;;;2.00;1.80;;;;;;;;;;5053244;28;20204;-63
2021/04/14 14:26:31;;;;;;;2.88;1.95;;;;;;;;;;5053136;28;20552;-64
2021/04/14 14:28:58;;;;;;;1.70;1.60;;;;;;;;;;5053440;28;20201;-65
2021/04/14 14:31:26;;;;;;;1.92;1.83;;;;;;;;;;5052606;28;20630;-64
2021/04/14 14:33:55;;;;;;;1.90;1.70;;;;;;;;;;5052887;28;20301;-64
2021/04/14 14:36:25;;;;;;;2.28;2.17;;;;;;;;;;5052691;28;20447;-63
2021/04/14 14:39:01;;;;;;;2.63;2.27;;;;;;;;;;5053080;28;20659;-64
2021/04/14 14:41:30;;;;;;;2.50;2.37;;;;;;;;;;5052543;28;21614;-63
2021/04/14 14:43:59;;;;;;;1.90;1.80;;;;;;;;;;5053222;28;20455;-63
2021/04/14 14:46:28;;;;;;;2.33;2.10;;;;;;;;;;5056423;28;20445;-63
2021/04/14 14:48:57;;;;;;;2.30;2.10;;;;;;;;;;5056750;28;20440;-62
2021/04/14 14:51:25;;;;;;;3.43;2.50;;;;;;;;;;5055705;28;20988;-64